createdAt,value
2018-03-26T00:01:24.213Z,14.13
2018-03-26T00:03:51.748Z,14.60
2018-03-26T00:06:19.336Z,14.07
2018-03-26T00:08:47.067Z,13.00
2018-03-26T00:11:14.771Z,11.93
2018-03-26T00:13:42.634Z,12.97
2018-03-26T00:16:10.365Z,14.63
2018-03-26T00:18:38.199Z,13.65
2018-03-26T00:21:05.928Z,13.50
2018-03-26T00:23:33.590Z,12.33
2018-03-26T00:26:01.588Z,12.67
2018-03-26T00:28:29.889Z,12.53
2018-03-26T00:30:57.662Z,14.37
2018-03-26T00:33:25.413Z,14.10
2018-03-26T00:35:53.627Z,13.00
2018-03-26T00:38:21.177Z,12.13
2018-03-26T00:40:49.108Z,11.00
2018-03-26T00:43:17.048Z,12.10
2018-03-26T00:45:44.859Z,11.67
2018-03-26T00:48:12.608Z,13.10
2018-03-26T00:50:40.368Z,12.75
2018-03-26T00:53:08.232Z,14.73
2018-03-26T00:55:35.923Z,13.57
2018-03-26T00:58:03.903Z,15.40
2018-03-26T01:00:31.864Z,14.63
2018-03-26T01:02:59.648Z,15.10
2018-03-26T01:05:27.204Z,14.30
2018-03-26T01:07:55.282Z,15.00
2018-03-26T01:10:23.097Z,13.70
2018-03-26T01:12:50.724Z,12.30
2018-03-26T01:15:18.798Z,13.70
2018-03-26T01:17:46.408Z,15.37
2018-03-26T01:20:14.007Z,15.63
2018-03-26T01:22:42.178Z,16.83
2018-03-26T01:25:09.908Z,16.10
2018-03-26T01:27:37.489Z,14.13
2018-03-26T01:30:05.433Z,14.80
2018-03-26T01:32:33.248Z,13.13
2018-03-26T01:35:01.054Z,13.27
2018-03-26T01:37:28.767Z,14.07
2018-03-26T01:39:56.939Z,12.50
2018-03-26T01:42:24.844Z,12.90
2018-03-26T01:44:53.289Z,15.17
2018-03-26T01:47:21.183Z,15.40
2018-03-26T01:49:48.744Z,15.80
2018-03-26T01:52:17.818Z,16.23
2018-03-26T01:54:45.482Z,14.10
2018-03-26T01:57:13.469Z,14.10
2018-03-26T01:59:41.831Z,14.43
2018-03-26T02:02:10.478Z,15.05
2018-03-26T02:04:38.039Z,15.20
2018-03-26T02:07:06.087Z,13.67
2018-03-26T02:09:34.134Z,14.10
2018-03-26T02:12:02.019Z,13.67
2018-03-26T02:14:29.852Z,14.17
2018-03-26T02:16:57.543Z,14.20
2018-03-26T02:19:25.479Z,16.83
2018-03-26T02:21:53.567Z,13.30
2018-03-26T02:24:21.513Z,13.13
2018-03-26T02:26:49.326Z,13.83
2018-03-26T02:29:17.074Z,14.90
2018-03-26T02:31:44.763Z,14.17
2018-03-26T02:34:12.830Z,15.17
2018-03-26T02:36:40.602Z,13.53
2018-03-26T02:39:08.137Z,13.77
2018-03-26T02:41:35.894Z,14.80
2018-03-26T02:44:03.506Z,13.80
2018-03-26T02:46:31.265Z,12.32
2018-03-26T02:48:59.064Z,12.80
2018-03-26T02:51:27.305Z,13.70
2018-03-26T02:53:55.184Z,12.50
2018-03-26T02:56:22.815Z,13.80
2018-03-26T02:58:50.645Z,14.10
2018-03-26T03:01:18.455Z,13.70
2018-03-26T03:03:46.152Z,13.43
2018-03-26T03:06:14.065Z,11.70
2018-03-26T03:08:41.793Z,13.40
2018-03-26T03:11:09.484Z,15.00
2018-03-26T03:13:37.162Z,15.57
2018-03-26T03:16:05.009Z,13.57
2018-03-26T03:18:32.804Z,14.23
2018-03-26T03:21:00.627Z,15.30
2018-03-26T03:23:28.517Z,16.07
2018-03-26T03:25:56.433Z,12.43
2018-03-26T03:28:24.162Z,14.80
2018-03-26T03:30:51.960Z,13.07
2018-03-26T03:33:19.728Z,15.10
2018-03-26T03:35:47.444Z,14.03
2018-03-26T03:38:15.014Z,14.17
2018-03-26T03:40:42.953Z,14.47
2018-03-26T03:43:10.533Z,14.03
2018-03-26T03:45:38.974Z,13.80
2018-03-26T03:48:06.542Z,14.87
2018-03-26T03:50:35.143Z,14.13
2018-03-26T03:53:03.364Z,13.63
2018-03-26T03:55:32.228Z,13.03
2018-03-26T03:57:59.956Z,14.50
2018-03-26T04:00:27.909Z,15.10
2018-03-26T04:02:56.317Z,14.00
2018-03-26T04:05:24.054Z,13.85
2018-03-26T04:07:52.422Z,14.60
2018-03-26T04:10:20.934Z,12.73
2018-03-26T04:12:48.768Z,13.13
2018-03-26T04:15:16.503Z,13.60
2018-03-26T04:17:44.634Z,12.70
2018-03-26T04:20:12.193Z,14.83
2018-03-26T04:22:40.265Z,15.27
2018-03-26T04:25:08.152Z,14.33
2018-03-26T04:27:35.964Z,12.67
2018-03-26T04:30:04.149Z,13.87
2018-03-26T04:32:32.164Z,14.73
2018-03-26T04:35:00.127Z,15.30
2018-03-26T04:37:27.702Z,14.40
2018-03-26T04:39:55.682Z,14.57
2018-03-26T04:42:23.363Z,14.87
2018-03-26T04:44:51.132Z,14.15
2018-03-26T04:47:18.848Z,13.53
2018-03-26T04:49:46.905Z,15.40
2018-03-26T04:52:14.507Z,14.53
2018-03-26T04:54:42.468Z,13.27
2018-03-26T04:57:10.494Z,15.35
2018-03-26T04:59:39.062Z,14.83
2018-03-26T05:02:06.608Z,14.80
2018-03-26T05:04:34.414Z,16.60
2018-03-26T05:07:02.160Z,14.80
2018-03-26T05:09:29.959Z,14.63
2018-03-26T05:11:57.626Z,13.80
2018-03-26T05:14:25.298Z,14.63
2018-03-26T05:16:52.951Z,12.33
2018-03-26T05:19:20.762Z,13.27
2018-03-26T05:21:48.513Z,13.60
2018-03-26T05:24:16.607Z,13.20
2018-03-26T05:26:44.941Z,11.87
2018-03-26T05:29:12.478Z,13.83
2018-03-26T05:31:40.483Z,13.53
2018-03-26T05:34:08.629Z,12.93
2018-03-26T05:36:36.438Z,14.53
2018-03-26T05:39:04.359Z,13.20
2018-03-26T05:41:32.289Z,14.00
2018-03-26T05:44:00.163Z,13.57
2018-03-26T05:46:27.832Z,14.07
2018-03-26T05:48:55.804Z,136.53
2018-03-26T05:51:23.421Z,16.45
2018-03-26T05:53:51.028Z,13.93
2018-03-26T05:56:18.802Z,14.37
2018-03-26T05:58:46.841Z,14.20
2018-03-26T06:01:14.822Z,14.57
2018-03-26T06:03:42.700Z,13.60
2018-03-26T06:06:10.532Z,13.57
2018-03-26T06:08:38.703Z,14.57
2018-03-26T06:11:06.408Z,15.23
2018-03-26T06:13:34.503Z,14.80
2018-03-26T06:16:02.802Z,14.10
2018-03-26T06:18:30.783Z,14.60
2018-03-26T06:20:58.594Z,14.53
2018-03-26T06:23:26.155Z,14.97
2018-03-26T06:25:54.088Z,14.60
2018-03-26T06:28:21.836Z,13.60
2018-03-26T06:30:49.594Z,14.90
2018-03-26T06:33:17.816Z,14.00
2018-03-26T06:35:46.088Z,15.70
2018-03-26T06:38:33.512Z,14.70
2018-03-26T06:41:02.508Z,15.47
2018-03-26T06:43:30.357Z,13.90
2018-03-26T06:45:58.097Z,14.57
2018-03-26T06:48:25.903Z,14.50
2018-03-26T06:50:54.518Z,15.40
2018-03-26T06:53:22.262Z,16.43
2018-03-26T06:55:49.977Z,14.80
2018-03-26T06:58:17.846Z,16.87
2018-03-26T07:00:45.414Z,15.47
2018-03-26T07:03:13.331Z,14.63
2018-03-26T07:05:41.043Z,15.67
2018-03-26T07:08:09.773Z,16.60
2018-03-26T07:10:37.400Z,17.50
2018-03-26T07:13:05.142Z,21.23
2018-03-26T07:15:32.913Z,17.20
2018-03-26T07:18:00.647Z,17.60
2018-03-26T07:20:28.637Z,16.73
2018-03-26T07:22:56.168Z,15.47
2018-03-26T07:25:23.755Z,17.40
2018-03-26T07:27:51.742Z,17.60
2018-03-26T07:30:19.373Z,15.97
2018-03-26T07:32:47.202Z,16.37
2018-03-26T07:35:14.916Z,17.97
2018-03-26T07:37:43.009Z,17.73
2018-03-26T07:40:11.047Z,17.17
2018-03-26T07:42:38.946Z,18.67
2018-03-26T07:45:06.697Z,18.00
2018-03-26T07:47:34.444Z,32.10
2018-03-26T07:50:03.313Z,17.77
2018-03-26T07:52:31.208Z,18.73
2018-03-26T07:54:59.852Z,19.10
2018-03-26T07:57:28.538Z,18.70
2018-03-26T07:59:56.252Z,19.00
2018-03-26T08:02:23.962Z,18.50
2018-03-26T08:04:51.607Z,18.47
2018-03-26T08:07:19.878Z,18.00
2018-03-26T08:09:47.728Z,17.60
2018-03-26T08:12:15.860Z,19.47
2018-03-26T08:14:43.701Z,18.93
2018-03-26T08:17:11.626Z,18.70
2018-03-26T08:19:39.499Z,19.87
2018-03-26T08:22:07.187Z,18.17
2018-03-26T08:24:35.498Z,20.20
2018-03-26T08:27:03.085Z,19.17
2018-03-26T08:29:30.805Z,17.83
2018-03-26T08:31:58.427Z,18.83
2018-03-26T08:34:26.533Z,19.87
2018-03-26T08:36:54.354Z,17.87
2018-03-26T08:39:22.250Z,17.87
2018-03-26T08:41:49.925Z,17.70
2018-03-26T08:44:17.754Z,19.83
2018-03-26T08:46:45.986Z,18.20
2018-03-26T08:49:14.052Z,21.53
2018-03-26T08:51:41.860Z,20.70
2018-03-26T08:54:09.668Z,21.63
2018-03-26T08:56:37.329Z,21.77
2018-03-26T08:59:05.083Z,23.40
2018-03-26T09:01:33.407Z,24.60
2018-03-26T09:04:01.339Z,23.05
2018-03-26T09:06:29.389Z,22.93
2018-03-26T09:08:56.952Z,24.55
2018-03-26T09:11:25.183Z,25.40
2018-03-26T09:13:52.869Z,23.03
2018-03-26T09:16:20.627Z,24.40
2018-03-26T09:18:48.395Z,26.03
2018-03-26T09:21:16.489Z,26.27
2018-03-26T09:23:44.443Z,25.13
2018-03-26T09:26:12.547Z,25.10
2018-03-26T09:28:40.774Z,26.43
2018-03-26T09:31:08.409Z,26.70
2018-03-26T09:33:35.983Z,26.60
2018-03-26T09:36:04.142Z,25.60
2018-03-26T09:38:31.944Z,26.57
2018-03-26T09:40:59.752Z,27.07
2018-03-26T09:43:27.694Z,28.20
2018-03-26T09:45:56.262Z,29.13
2018-03-26T09:48:23.932Z,28.35
2018-03-26T09:50:52.108Z,26.47
2018-03-26T09:53:20.456Z,27.57
2018-03-26T09:55:48.747Z,30.60
2018-03-26T09:58:16.438Z,30.37
2018-03-26T10:00:48.968Z,30.03
2018-03-26T10:03:16.654Z,31.03
2018-03-26T10:05:44.823Z,30.87
2018-03-26T10:08:13.253Z,31.20
2018-03-26T10:10:41.790Z,30.87
2018-03-26T10:13:10.012Z,30.00
2018-03-26T10:15:38.993Z,29.77
2018-03-26T10:18:06.806Z,31.20
2018-03-26T10:20:34.414Z,31.80
2018-03-26T10:23:02.329Z,33.03
2018-03-26T10:25:30.778Z,32.80
2018-03-26T10:27:58.414Z,31.10
2018-03-26T10:30:26.047Z,31.07
2018-03-26T10:32:53.728Z,30.43
2018-03-26T10:35:21.558Z,32.20
2018-03-26T10:37:49.501Z,31.83
2018-03-26T10:40:17.472Z,32.80
2018-03-26T10:42:45.383Z,33.17
2018-03-26T10:45:13.099Z,33.23
2018-03-26T10:47:40.807Z,31.73
2018-03-26T10:50:08.602Z,33.27
2018-03-26T10:52:36.411Z,32.03
2018-03-26T10:55:04.116Z,41.57
2018-03-26T10:57:31.676Z,33.13
2018-03-26T10:59:59.434Z,32.43
2018-03-26T11:02:27.118Z,33.87
2018-03-26T11:04:54.817Z,33.33
2018-03-26T11:07:23.566Z,29.47
2018-03-26T11:09:51.156Z,32.60
2018-03-26T11:12:18.951Z,33.80
2018-03-26T11:14:46.608Z,35.03
2018-03-26T11:17:14.381Z,33.10
2018-03-26T11:19:42.259Z,31.60
2018-03-26T11:22:15.463Z,32.90
2018-03-26T11:24:44.081Z,31.52
2018-03-26T11:27:12.828Z,31.70
2018-03-26T11:29:40.843Z,31.50
2018-03-26T11:32:09.374Z,30.77
2018-03-26T11:34:37.173Z,32.37
2018-03-26T11:37:04.911Z,32.70
2018-03-26T11:39:32.867Z,109.40
2018-03-26T11:42:00.728Z,66.93
2018-03-26T11:44:28.601Z,88.37
2018-03-26T11:46:56.764Z,88.37
2018-03-26T11:49:24.751Z,119.13
2018-03-26T11:51:52.726Z,65.37
2018-03-26T11:54:20.687Z,42.77
2018-03-26T11:56:48.262Z,40.30
2018-03-26T11:59:16.448Z,54.80
2018-03-26T12:01:44.446Z,41.40
2018-03-26T12:04:12.162Z,31.20
2018-03-26T12:06:40.256Z,31.75
2018-03-26T12:09:08.556Z,30.40
2018-03-26T12:11:38.904Z,32.63
2018-03-26T12:14:06.912Z,37.40
2018-03-26T12:16:34.748Z,32.10
2018-03-26T12:19:02.322Z,31.17
2018-03-26T12:21:30.053Z,31.70
2018-03-26T12:24:09.827Z,33.10
2018-03-26T12:26:37.558Z,33.37
2018-03-26T12:29:17.121Z,32.27
2018-03-26T12:31:44.941Z,31.50
2018-03-26T12:34:24.814Z,32.15
2018-03-26T12:36:52.672Z,31.97
2018-03-26T12:39:20.257Z,32.37
2018-03-26T12:41:48.012Z,29.70
2018-03-26T12:44:27.773Z,29.67
2018-03-26T12:46:56.083Z,29.73
2018-03-26T12:49:23.816Z,29.47
2018-03-26T12:54:53.838Z,29.23
2018-03-26T12:57:33.258Z,30.23
2018-03-26T13:00:01.143Z,27.20
2018-03-26T13:02:28.828Z,26.73
2018-03-26T13:04:56.747Z,25.97
2018-03-26T13:07:24.652Z,25.50
2018-03-26T13:09:52.813Z,24.03
2018-03-26T13:12:20.869Z,26.50
2018-03-26T13:14:48.977Z,24.90
2018-03-26T13:17:16.621Z,24.40
2018-03-26T13:19:44.392Z,24.47
2018-03-26T13:22:13.046Z,24.93
2018-03-26T13:24:41.402Z,24.57
2018-03-26T13:27:09.203Z,23.03
2018-03-26T13:29:37.129Z,24.13
2018-03-26T13:32:05.119Z,24.30
2018-03-26T13:34:32.847Z,25.40
2018-03-26T13:37:00.752Z,24.23
2018-03-26T13:39:28.452Z,25.80
2018-03-26T13:41:56.537Z,26.70
2018-03-26T13:44:24.414Z,28.57
2018-03-26T13:46:52.398Z,25.10
2018-03-26T13:49:20.436Z,29.30
2018-03-26T13:51:48.327Z,29.42
2018-03-26T13:54:16.918Z,27.67
2018-03-26T13:56:44.626Z,29.20
2018-03-26T13:59:12.430Z,29.10
2018-03-26T14:01:40.161Z,28.50
2018-03-26T14:04:07.926Z,28.40
2018-03-26T14:06:35.501Z,37.00
2018-03-26T14:09:15.088Z,28.97
2018-03-26T14:11:54.881Z,28.23
2018-03-26T14:14:34.611Z,26.67
2018-03-26T14:17:14.494Z,28.53
2018-03-26T14:19:42.262Z,28.73
2018-03-26T14:22:09.838Z,27.87
2018-03-26T14:24:37.493Z,32.20
2018-03-26T14:27:05.391Z,31.57
2018-03-26T14:29:33.210Z,30.33
2018-03-26T14:32:01.032Z,27.50
2018-03-26T14:34:28.772Z,30.77
2018-03-26T14:36:56.592Z,30.83
2018-03-26T14:39:24.522Z,32.70
2018-03-26T14:41:52.365Z,28.60
2018-03-26T14:44:20.105Z,29.97
2018-03-26T14:46:47.813Z,29.87
2018-03-26T14:49:15.533Z,32.17
2018-03-26T14:51:43.456Z,31.17
2018-03-26T14:54:11.779Z,35.87
2018-03-26T14:56:40.518Z,32.23
2018-03-26T14:59:08.362Z,32.60
2018-03-26T15:01:36.353Z,33.40
2018-03-26T15:04:04.573Z,35.17
2018-03-26T15:06:32.307Z,34.53
2018-03-26T15:09:00.183Z,34.93
2018-03-26T15:11:28.031Z,35.80
2018-03-26T15:13:55.970Z,37.40
2018-03-26T15:16:23.737Z,38.03
2018-03-26T15:18:51.499Z,38.80
2018-03-26T15:21:19.153Z,35.07
2018-03-26T15:23:47.047Z,34.17
2018-03-26T15:26:14.688Z,37.27
2018-03-26T15:28:42.463Z,38.37
2018-03-26T15:31:10.357Z,34.70
2018-03-26T15:33:38.852Z,40.40
2018-03-26T15:36:06.672Z,41.20
2018-03-26T15:38:34.282Z,39.53
2018-03-26T15:41:02.400Z,34.27
2018-03-26T15:43:30.229Z,33.13
2018-03-26T15:45:57.937Z,34.13
2018-03-26T15:48:25.491Z,35.45
2018-03-26T15:50:53.272Z,34.20
2018-03-26T15:53:20.971Z,32.73
2018-03-26T15:55:48.740Z,33.40
2018-03-26T15:58:16.680Z,35.30
2018-03-26T16:00:44.301Z,33.37
2018-03-26T16:03:17.836Z,32.43
2018-03-26T16:05:45.552Z,31.27
2018-03-26T16:08:13.837Z,31.03
2018-03-26T16:10:41.552Z,34.33
2018-03-26T16:13:09.298Z,32.10
2018-03-26T16:15:36.945Z,30.30
2018-03-26T16:18:04.898Z,30.20
2018-03-26T16:20:33.977Z,30.00
2018-03-26T16:23:01.872Z,32.30
2018-03-26T16:25:29.973Z,30.40
2018-03-26T16:27:57.638Z,29.33
2018-03-26T16:30:25.507Z,29.60
2018-03-26T16:32:53.408Z,27.80
2018-03-26T16:35:26.757Z,27.80
2018-03-26T16:37:54.767Z,26.70
2018-03-26T16:40:22.541Z,24.93
2018-03-26T16:42:54.616Z,27.87
2018-03-26T16:45:22.552Z,29.10
2018-03-26T16:47:51.423Z,27.97
2018-03-26T16:50:19.297Z,26.50
2018-03-26T16:52:46.858Z,27.40
2018-03-26T16:55:14.602Z,28.57
2018-03-26T16:57:42.338Z,28.23
2018-03-26T17:00:09.966Z,32.10
2018-03-26T17:02:37.612Z,26.40
2018-03-26T17:05:05.354Z,28.93
2018-03-26T17:07:33.155Z,25.27
2018-03-26T17:10:01.233Z,24.57
2018-03-26T17:12:29.207Z,25.10
2018-03-26T17:14:57.296Z,25.98
2018-03-26T17:17:25.108Z,25.10
2018-03-26T17:19:52.761Z,23.47
2018-03-26T17:22:20.921Z,23.80
2018-03-26T17:24:48.768Z,24.97
2018-03-26T17:27:16.838Z,23.80
2018-03-26T17:29:44.720Z,24.77
2018-03-26T17:32:12.536Z,23.10
2018-03-26T17:34:40.294Z,24.80
2018-03-26T17:37:08.066Z,24.10
2018-03-26T17:39:36.011Z,24.37
2018-03-26T17:42:04.361Z,24.40
2018-03-26T17:44:32.096Z,24.13
2018-03-26T17:47:00.115Z,24.98
2018-03-26T17:49:28.066Z,22.73
2018-03-26T17:51:55.658Z,24.70
2018-03-26T17:54:23.537Z,23.83
2018-03-26T17:56:51.981Z,24.90
2018-03-26T17:59:19.714Z,23.20
2018-03-26T18:01:47.276Z,21.70
2018-03-26T18:04:15.767Z,24.57
2018-03-26T18:06:43.461Z,23.83
2018-03-26T18:09:11.278Z,31.63
2018-03-26T18:11:38.873Z,22.43
2018-03-26T18:14:06.624Z,21.70
2018-03-26T18:16:34.487Z,24.43
2018-03-26T18:19:02.066Z,21.13
2018-03-26T18:21:29.836Z,21.87
2018-03-26T18:23:57.422Z,21.03
2018-03-26T18:26:26.647Z,22.53
2018-03-26T18:28:54.448Z,23.30
2018-03-26T18:31:22.509Z,20.93
2018-03-26T18:33:50.302Z,23.90
2018-03-26T18:36:17.996Z,23.87
2018-03-26T18:38:45.786Z,23.53
2018-03-26T18:41:13.677Z,23.70
2018-03-26T18:43:41.367Z,23.47
2018-03-26T18:46:09.111Z,22.33
2018-03-26T18:48:36.885Z,22.90
2018-03-26T18:51:04.443Z,23.50
2018-03-26T18:53:32.167Z,24.23
2018-03-26T18:56:00.088Z,23.40
2018-03-26T18:58:28.015Z,25.83
2018-03-26T19:00:55.946Z,25.10
2018-03-26T19:03:23.724Z,24.30
2018-03-26T19:05:51.671Z,24.00
2018-03-26T19:08:19.633Z,23.30
2018-03-26T19:10:47.801Z,23.30
2018-03-26T19:13:15.636Z,24.60
2018-03-26T19:15:43.404Z,25.30
2018-03-26T19:18:12.286Z,24.30
2018-03-26T19:20:40.152Z,24.23
2018-03-26T19:23:08.051Z,23.17
2018-03-26T19:25:35.632Z,22.33
2018-03-26T19:28:03.287Z,20.90
2018-03-26T19:30:31.488Z,23.63
2018-03-26T19:32:59.512Z,24.83
2018-03-26T19:35:27.498Z,23.20
2018-03-26T19:37:55.623Z,22.50
2018-03-26T19:40:23.716Z,22.47
2018-03-26T19:42:51.892Z,23.57
2018-03-26T19:45:20.842Z,21.27
2018-03-26T19:47:48.641Z,20.27
2018-03-26T19:50:16.299Z,20.37
2018-03-26T19:52:44.755Z,21.77
2018-03-26T19:55:12.361Z,23.53
2018-03-26T19:57:40.387Z,20.45
2018-03-26T20:00:08.347Z,22.97
2018-03-26T20:02:36.035Z,22.90
2018-03-26T20:05:03.888Z,21.30
2018-03-26T20:07:31.677Z,22.77
2018-03-26T20:09:59.507Z,22.20
2018-03-26T20:12:27.884Z,22.05
2018-03-26T20:14:56.577Z,23.10
2018-03-26T20:17:24.296Z,21.57
2018-03-26T20:19:52.006Z,20.40
2018-03-26T20:22:20.693Z,21.17
2018-03-26T20:24:48.538Z,22.37
2018-03-26T20:27:16.187Z,23.20
2018-03-26T20:29:43.903Z,21.60
2018-03-26T20:32:11.801Z,21.70
2018-03-26T20:34:39.588Z,22.30
2018-03-26T20:37:08.328Z,21.83
2018-03-26T20:39:36.042Z,22.00
2018-03-26T20:42:03.869Z,21.23
2018-03-26T20:44:31.745Z,21.83
2018-03-26T20:47:00.406Z,22.77
2018-03-26T20:49:27.972Z,21.70
2018-03-26T20:51:55.696Z,21.10
2018-03-26T20:54:23.416Z,23.40
2018-03-26T20:56:51.745Z,21.73
2018-03-26T20:59:19.503Z,21.70
2018-03-26T21:01:47.230Z,22.83
2018-03-26T21:04:15.017Z,21.70
2018-03-26T21:06:42.664Z,22.48
2018-03-26T21:09:10.621Z,22.33
2018-03-26T21:11:38.387Z,22.37
2018-03-26T21:14:06.402Z,20.83
2018-03-26T21:16:34.370Z,23.10
2018-03-26T21:19:02.123Z,22.70
2018-03-26T21:21:29.691Z,22.17
2018-03-26T21:23:57.394Z,21.43
2018-03-26T21:26:25.927Z,23.17
2018-03-26T21:28:53.578Z,22.90
2018-03-26T21:31:21.203Z,20.40
2018-03-26T21:33:49.219Z,22.70
2018-03-26T21:36:16.972Z,21.53
2018-03-26T21:38:44.737Z,21.55
2018-03-26T21:41:12.415Z,22.00
2018-03-26T21:43:40.138Z,22.90
2018-03-26T21:46:07.908Z,23.30
2018-03-26T21:48:36.181Z,23.33
2018-03-26T21:51:03.849Z,23.13
2018-03-26T21:53:31.556Z,22.53
2018-03-26T21:55:59.275Z,22.90
2018-03-26T21:58:27.193Z,22.90
2018-03-26T22:00:54.928Z,22.77
2018-03-26T22:03:22.657Z,23.70
2018-03-26T22:05:50.552Z,22.53
2018-03-26T22:08:18.308Z,23.83
2018-03-26T22:10:46.281Z,24.90
2018-03-26T22:13:14.017Z,24.47
2018-03-26T22:15:41.607Z,25.20
2018-03-26T22:18:09.213Z,22.55
2018-03-26T22:20:37.035Z,22.33
2018-03-26T22:23:04.645Z,24.30
2018-03-26T22:25:32.571Z,23.63
2018-03-26T22:28:00.377Z,25.23
2018-03-26T22:30:28.208Z,22.43
2018-03-26T22:32:55.970Z,24.27
2018-03-26T22:35:23.672Z,24.87
2018-03-26T22:37:51.643Z,23.93
2018-03-26T22:40:19.538Z,25.73
2018-03-26T22:42:47.221Z,25.00
2018-03-26T22:45:15.261Z,24.17
2018-03-26T22:47:42.893Z,26.83
2018-03-26T22:50:10.886Z,24.83
2018-03-26T22:52:38.437Z,26.57
2018-03-26T22:55:06.164Z,26.00
2018-03-26T22:57:34.127Z,27.00
2018-03-26T23:00:01.833Z,25.20
2018-03-26T23:02:29.703Z,26.10
2018-03-26T23:04:57.632Z,25.40
2018-03-26T23:07:25.403Z,26.58
2018-03-26T23:09:53.136Z,26.70
2018-03-26T23:12:20.817Z,28.13
2018-03-26T23:14:49.832Z,28.05
2018-03-26T23:17:17.757Z,25.40
2018-03-26T23:19:45.677Z,25.33
2018-03-26T23:22:13.392Z,27.17
2018-03-26T23:24:41.372Z,26.20
2018-03-26T23:27:09.388Z,26.23
2018-03-26T23:29:37.080Z,25.37
2018-03-26T23:32:04.750Z,28.60
2018-03-26T23:34:32.566Z,27.30
2018-03-26T23:37:01.035Z,27.73
2018-03-26T23:39:28.696Z,26.83
2018-03-26T23:41:56.373Z,29.23
2018-03-26T23:44:24.813Z,30.50
2018-03-26T23:46:52.444Z,29.73
2018-03-26T23:49:20.252Z,35.43
2018-03-26T23:51:47.940Z,33.70
2018-03-26T23:54:15.951Z,33.17
2018-03-26T23:56:43.832Z,32.00
2018-03-26T23:59:11.731Z,33.50
